createdAt,value
2019-05-02T00:00:04.563Z,86.43
2019-05-02T00:01:04.532Z,86.64
2019-05-02T00:02:05.283Z,87.15
2019-05-02T00:03:05.697Z,86.74
2019-05-02T00:04:04.433Z,87.46
2019-05-02T00:05:04.404Z,87.05
2019-05-02T00:06:07.519Z,86.99
2019-05-02T00:07:04.368Z,87.81
2019-05-02T00:08:04.345Z,88.08
2019-05-02T00:09:09.257Z,88.18
2019-05-02T00:10:04.270Z,87.87
2019-05-02T00:11:04.209Z,87.98
2019-05-02T00:12:04.209Z,87.77
2019-05-02T00:13:04.149Z,87.98
2019-05-02T00:14:04.115Z,88.02
2019-05-02T00:15:04.085Z,88.02
2019-05-02T00:16:04.050Z,88.02
2019-05-02T00:17:04.044Z,88.33
2019-05-02T00:18:03.987Z,88.53
2019-05-02T00:19:03.957Z,88.49
2019-05-02T00:20:03.922Z,88.84
2019-05-02T00:21:03.895Z,88.84
2019-05-02T00:22:03.917Z,88.99
2019-05-02T00:23:03.826Z,89.05
2019-05-02T00:24:04.230Z,89.40
2019-05-02T00:25:03.769Z,89.81
2019-05-02T00:26:03.732Z,89.19
2019-05-02T00:27:03.726Z,89.91
2019-05-02T00:28:07.712Z,90.12
2019-05-02T00:29:03.636Z,90.73
2019-05-02T00:30:03.606Z,90.53
2019-05-02T00:31:07.385Z,90.43
2019-05-02T00:32:03.536Z,90.73
2019-05-02T00:33:03.532Z,90.73
2019-05-02T00:34:03.479Z,90.84
2019-05-02T00:35:03.448Z,90.53
2019-05-02T00:36:03.422Z,91.05
2019-05-02T00:37:03.377Z,91.09
2019-05-02T00:38:03.904Z,90.94
2019-05-02T00:39:03.322Z,90.64
2019-05-02T00:40:03.280Z,91.05
2019-05-02T00:41:03.649Z,92.22
2019-05-02T00:42:12.423Z,91.81
2019-05-02T00:43:03.224Z,91.60
2019-05-02T00:44:06.131Z,91.71
2019-05-02T00:45:03.126Z,92.02
2019-05-02T00:46:03.092Z,92.22
2019-05-02T00:47:06.019Z,92.43
2019-05-02T00:48:03.046Z,92.12
2019-05-02T00:49:02.992Z,92.37
2019-05-02T00:50:06.244Z,92.47
2019-05-02T00:51:02.933Z,92.16
2019-05-02T00:52:03.142Z,92.68
2019-05-02T00:53:07.233Z,92.88
2019-05-02T00:54:02.833Z,92.99
2019-05-02T00:55:02.802Z,92.88
2019-05-02T00:56:05.199Z,93.50
2019-05-02T00:57:02.744Z,92.88
2019-05-02T00:58:02.734Z,92.99
2019-05-02T00:59:07.434Z,92.63
2019-05-02T01:00:02.644Z,93.15
2019-05-02T01:01:02.635Z,92.90
2019-05-02T01:02:05.447Z,92.80
2019-05-02T01:03:02.599Z,92.18
2019-05-02T01:04:02.510Z,91.93
2019-05-02T01:05:03.250Z,91.52
2019-05-02T01:06:02.449Z,91.62
2019-05-02T01:07:02.417Z,91.93
2019-05-02T01:08:03.025Z,91.52
2019-05-02T01:09:05.843Z,91.62
2019-05-02T01:10:02.321Z,91.25
2019-05-02T01:11:02.304Z,91.42
2019-05-02T01:12:03.049Z,90.55
2019-05-02T01:13:02.222Z,90.69
2019-05-02T01:14:02.213Z,90.66
2019-05-02T01:15:03.201Z,90.39
2019-05-02T01:16:02.125Z,90.55
2019-05-02T01:17:02.098Z,90.14
2019-05-02T01:18:06.083Z,89.62
2019-05-02T01:19:02.053Z,89.73
2019-05-02T01:20:01.996Z,89.73
2019-05-02T01:21:02.889Z,89.31
2019-05-02T01:22:01.936Z,89.22
2019-05-02T01:23:01.901Z,88.96
2019-05-02T01:24:03.067Z,89.28
2019-05-02T01:25:01.873Z,88.86
2019-05-02T01:26:01.806Z,88.86
2019-05-02T01:27:04.570Z,88.56
2019-05-02T01:28:01.742Z,88.24
2019-05-02T01:29:01.742Z,88.35
2019-05-02T01:30:06.037Z,87.94
2019-05-02T01:31:01.705Z,87.94
2019-05-02T01:32:01.620Z,88.00
2019-05-02T01:33:06.295Z,87.94
2019-05-02T01:34:01.607Z,87.94
2019-05-02T01:35:01.601Z,87.94
2019-05-02T01:36:01.793Z,87.90
2019-05-02T01:37:01.461Z,87.90
2019-05-02T01:38:01.440Z,87.79
2019-05-02T01:39:03.017Z,88.04
2019-05-02T01:40:01.361Z,88.00
2019-05-02T01:41:01.336Z,87.38
2019-05-02T01:42:04.271Z,87.18
2019-05-02T01:43:01.268Z,87.59
2019-05-02T01:44:01.661Z,87.28
2019-05-02T01:45:01.206Z,87.18
2019-05-02T01:46:01.177Z,87.07
2019-05-02T01:47:01.145Z,86.77
2019-05-02T01:48:04.927Z,87.07
2019-05-02T01:49:01.082Z,86.87
2019-05-02T01:50:01.074Z,86.97
2019-05-02T01:51:04.589Z,86.97
2019-05-02T01:52:00.985Z,86.97
2019-05-02T01:53:00.957Z,86.97
2019-05-02T01:54:04.990Z,86.35
2019-05-02T01:55:00.917Z,86.66
2019-05-02T01:56:00.866Z,86.35
2019-05-02T01:57:03.904Z,85.84
2019-05-02T01:58:00.797Z,86.05
2019-05-02T01:59:00.767Z,85.63
2019-05-02T02:00:04.238Z,86.25
2019-05-02T02:01:00.707Z,85.84
2019-05-02T02:02:00.674Z,85.94
2019-05-02T02:03:04.263Z,85.94
2019-05-02T02:04:00.634Z,86.15
2019-05-02T02:05:00.601Z,86.25
2019-05-02T02:06:02.939Z,85.84
2019-05-02T02:07:00.515Z,86.05
2019-05-02T02:08:00.497Z,85.84
2019-05-02T02:09:03.413Z,85.94
2019-05-02T02:10:00.491Z,85.94
2019-05-02T02:11:00.400Z,85.94
2019-05-02T02:12:00.361Z,85.94
2019-05-02T02:13:04.853Z,85.94
2019-05-02T02:14:00.296Z,85.84
2019-05-02T02:15:00.292Z,85.43
2019-05-02T02:16:04.496Z,85.53
2019-05-02T02:17:00.203Z,85.22
2019-05-02T02:18:00.171Z,85.43
2019-05-02T02:19:03.951Z,84.81
2019-05-02T02:20:00.893Z,84.91
2019-05-02T02:21:00.078Z,85.02
2019-05-02T02:22:02.692Z,84.81
2019-05-02T02:23:00.017Z,84.91
2019-05-02T02:23:59.984Z,84.81
2019-05-02T02:25:00.999Z,85.02
2019-05-02T02:25:59.926Z,84.91
2019-05-02T02:26:59.889Z,84.61
2019-05-02T02:28:00.964Z,84.81
2019-05-02T02:29:03.072Z,83.58
2019-05-02T02:29:59.885Z,83.48
2019-05-02T02:31:04.930Z,83.27
2019-05-02T02:31:59.752Z,83.27
2019-05-02T02:33:07.432Z,82.76
2019-05-02T02:33:59.672Z,83.31
2019-05-02T02:35:03.512Z,83.20
2019-05-02T02:35:59.610Z,83.58
2019-05-02T02:37:05.230Z,83.17
2019-05-02T02:37:59.543Z,83.48
2019-05-02T02:38:59.522Z,83.27
2019-05-02T02:39:59.505Z,82.39
2019-05-02T02:40:59.451Z,82.24
2019-05-02T02:42:03.306Z,81.67
2019-05-02T02:43:10.118Z,80.53
2019-05-02T02:44:00.543Z,80.33
2019-05-02T02:44:59.356Z,80.12
2019-05-02T02:45:59.767Z,80.12
2019-05-02T02:46:59.288Z,79.19
2019-05-02T02:48:00.137Z,79.30
2019-05-02T02:48:59.202Z,79.40
2019-05-02T02:50:02.458Z,79.61
2019-05-02T02:50:59.141Z,79.30
2019-05-02T02:52:04.734Z,78.99
2019-05-02T02:52:59.071Z,79.13
2019-05-02T02:54:03.952Z,79.40
2019-05-02T02:54:59.030Z,78.06
2019-05-02T02:56:02.123Z,78.37
2019-05-02T02:56:58.943Z,78.20
2019-05-02T02:58:58.882Z,78.17
2019-05-02T03:00:06.104Z,77.65
2019-05-02T03:00:58.815Z,77.24
2019-05-02T03:02:09.256Z,76.93
2019-05-02T03:02:58.752Z,77.03
2019-05-02T03:04:01.781Z,76.93
2019-05-02T03:04:58.711Z,76.86
2019-05-02T03:06:05.235Z,77.17
2019-05-02T03:06:58.624Z,77.58
2019-05-02T03:07:59.483Z,77.38
2019-05-02T03:08:58.576Z,77.45
2019-05-02T03:09:59.685Z,78.10
2019-05-02T03:10:58.497Z,78.00
2019-05-02T03:12:02.250Z,77.45
2019-05-02T03:12:59.403Z,77.48
2019-05-02T03:14:05.510Z,77.03
2019-05-02T03:14:58.396Z,77.17
2019-05-02T03:16:00.360Z,76.76
2019-05-02T03:16:58.310Z,76.86
2019-05-02T03:18:00.101Z,76.66
2019-05-02T03:18:58.245Z,76.93
2019-05-02T03:20:00.975Z,76.97
2019-05-02T03:20:58.206Z,76.86
2019-05-02T03:22:03.759Z,76.66
2019-05-02T03:22:58.118Z,76.66
2019-05-02T03:24:03.154Z,77.07
2019-05-02T03:24:58.052Z,77.17
2019-05-02T03:25:58.049Z,77.17
2019-05-02T03:26:58.733Z,77.28
2019-05-02T03:27:57.958Z,77.28
2019-05-02T03:29:00.525Z,77.48
2019-05-02T03:29:57.909Z,77.58
2019-05-02T03:30:57.884Z,77.79
2019-05-02T03:32:21.870Z,77.48
2019-05-02T03:33:06.063Z,77.17
2019-05-02T03:34:00.575Z,77.89
2019-05-02T03:34:57.739Z,78.00
2019-05-02T03:35:57.731Z,77.89
2019-05-02T03:37:03.096Z,78.17
2019-05-02T03:37:57.670Z,78.17
2019-05-02T03:38:57.605Z,78.06
2019-05-02T03:40:00.347Z,78.17
2019-05-02T03:40:57.582Z,78.17
2019-05-02T03:42:03.123Z,78.06
2019-05-02T03:42:57.476Z,78.17
2019-05-02T03:44:10.698Z,78.72
2019-05-02T03:45:03.987Z,78.47
2019-05-02T03:45:57.408Z,78.58
2019-05-02T03:47:02.351Z,78.58
2019-05-02T03:47:57.320Z,78.58
2019-05-02T03:49:06.147Z,78.89
2019-05-02T03:49:57.258Z,78.68
2019-05-02T03:50:57.274Z,78.37
2019-05-02T03:52:03.009Z,77.96
2019-05-02T03:52:57.176Z,78.68
2019-05-02T03:54:06.461Z,78.92
2019-05-02T03:54:57.097Z,78.68
2019-05-02T03:55:57.064Z,78.58
2019-05-02T03:56:57.058Z,78.78
2019-05-02T03:57:57.013Z,78.89
2019-05-02T03:58:58.314Z,79.40
2019-05-02T03:59:56.951Z,78.99
2019-05-02T04:01:01.628Z,79.09
2019-05-02T04:01:56.901Z,78.99
2019-05-02T04:03:00.411Z,79.09
2019-05-02T04:03:56.819Z,78.68
2019-05-02T04:05:00.580Z,77.75
2019-05-02T04:05:56.755Z,78.33
2019-05-02T04:07:01.045Z,78.17
2019-05-02T04:07:56.686Z,78.13
2019-05-02T04:09:00.029Z,77.96
2019-05-02T04:09:56.628Z,77.75
2019-05-02T04:10:59.614Z,77.45
2019-05-02T04:11:56.594Z,77.82
2019-05-02T04:12:58.510Z,78.06
2019-05-02T04:13:56.508Z,77.75
2019-05-02T04:14:57.410Z,77.75
2019-05-02T04:15:56.491Z,77.34
2019-05-02T04:16:59.325Z,77.51
2019-05-02T04:17:56.476Z,77.34
2019-05-02T04:18:58.233Z,77.92
2019-05-02T04:19:56.360Z,77.51
2019-05-02T04:20:56.387Z,76.93
2019-05-02T04:22:01.699Z,76.59
2019-05-02T04:22:56.274Z,76.59
2019-05-02T04:24:07.775Z,76.28
2019-05-02T04:24:56.799Z,76.07
2019-05-02T04:25:56.124Z,76.48
2019-05-02T04:26:56.420Z,75.49
2019-05-02T04:27:56.068Z,75.56
2019-05-02T04:28:56.034Z,75.15
2019-05-02T04:29:56.020Z,75.08
2019-05-02T04:30:55.974Z,74.67
2019-05-02T04:31:55.961Z,73.19
2019-05-02T04:32:57.767Z,73.23
2019-05-02T04:33:55.875Z,73.33
2019-05-02T04:34:58.010Z,73.33
2019-05-02T04:35:59.356Z,73.19
2019-05-02T04:37:01.327Z,73.40
2019-05-02T04:37:59.109Z,73.30
2019-05-02T04:38:55.711Z,74.15
2019-05-02T04:39:59.099Z,74.22
2019-05-02T04:40:58.978Z,74.15
2019-05-02T04:41:58.409Z,74.77
2019-05-02T04:43:02.096Z,74.74
2019-05-02T04:43:58.803Z,74.53
2019-05-02T04:45:14.215Z,74.95
2019-05-02T04:45:59.179Z,75.15
2019-05-02T04:46:59.865Z,75.04
2019-05-02T04:48:00.929Z,75.04
2019-05-02T04:48:55.393Z,75.15
2019-05-02T04:49:55.407Z,75.04
2019-05-02T04:50:59.739Z,75.15
2019-05-02T04:52:04.564Z,74.84
2019-05-02T04:52:55.290Z,75.04
2019-05-02T04:53:58.571Z,75.25
2019-05-02T04:55:08.186Z,75.04
2019-05-02T04:56:01.578Z,75.46
2019-05-02T04:56:55.585Z,75.35
2019-05-02T04:57:55.133Z,75.35
2019-05-02T04:58:55.079Z,75.56
2019-05-02T05:00:02.467Z,75.46
2019-05-02T05:00:59.248Z,75.21
2019-05-02T05:01:58.535Z,74.95
2019-05-02T05:02:54.979Z,75.35
2019-05-02T05:03:58.266Z,76.38
2019-05-02T05:04:54.914Z,75.76
2019-05-02T05:06:01.576Z,76.38
2019-05-02T05:06:58.209Z,76.48
2019-05-02T05:07:54.821Z,75.67
2019-05-02T05:08:54.765Z,76.28
2019-05-02T05:09:58.354Z,75.73
2019-05-02T05:10:54.710Z,75.42
2019-05-02T05:11:59.001Z,75.35
2019-05-02T05:12:54.669Z,75.01
2019-05-02T05:13:57.657Z,75.56
2019-05-02T05:14:54.575Z,75.56
2019-05-02T05:15:54.546Z,75.76
2019-05-02T05:16:56.128Z,75.46
2019-05-02T05:17:54.508Z,76.07
2019-05-02T05:19:00.106Z,75.46
2019-05-02T05:19:54.422Z,75.97
2019-05-02T05:20:54.449Z,75.63
2019-05-02T05:21:56.757Z,76.48
2019-05-02T05:22:54.350Z,76.35
2019-05-02T05:23:59.623Z,75.73
2019-05-02T05:24:54.263Z,75.15
2019-05-02T05:25:55.807Z,75.12
2019-05-02T05:26:54.202Z,75.52
2019-05-02T05:27:58.788Z,76.45
2019-05-02T05:28:54.139Z,75.42
2019-05-02T05:30:00.803Z,75.52
2019-05-02T05:30:54.080Z,74.91
2019-05-02T05:31:55.250Z,74.57
2019-05-02T05:32:54.042Z,74.67
2019-05-02T05:33:53.988Z,74.57
2019-05-02T05:34:53.951Z,74.70
2019-05-02T05:35:53.987Z,74.87
2019-05-02T05:36:53.887Z,74.05
2019-05-02T05:37:53.880Z,74.36
2019-05-02T05:38:53.824Z,73.95
2019-05-02T05:39:53.793Z,73.64
2019-05-02T05:40:53.770Z,73.13
2019-05-02T05:41:53.732Z,73.33
2019-05-02T05:42:53.710Z,73.23
2019-05-02T05:43:53.764Z,73.13
2019-05-02T05:44:53.639Z,73.30
2019-05-02T05:46:01.323Z,73.23
2019-05-02T05:46:53.577Z,73.33
2019-05-02T05:47:57.521Z,73.13
2019-05-02T05:48:53.537Z,73.23
2019-05-02T05:49:57.690Z,73.54
2019-05-02T05:50:53.454Z,73.40
2019-05-02T05:51:54.386Z,73.64
2019-05-02T05:52:53.398Z,73.40
2019-05-02T05:53:59.102Z,73.30
2019-05-02T05:54:53.330Z,73.44
2019-05-02T05:55:53.679Z,73.85
2019-05-02T05:56:53.268Z,74.15
2019-05-02T05:57:59.529Z,74.26
2019-05-02T05:58:53.235Z,74.26
2019-05-02T05:59:53.182Z,74.26
2019-05-02T06:00:55.347Z,74.12
2019-05-02T06:01:53.116Z,73.74
2019-05-02T06:02:56.747Z,74.22
2019-05-02T06:03:53.077Z,74.22
2019-05-02T06:04:55.383Z,74.12
2019-05-02T06:05:52.996Z,74.12
2019-05-02T06:06:54.106Z,74.12
2019-05-02T06:07:52.931Z,74.84
2019-05-02T06:08:54.205Z,73.61
2019-05-02T06:09:52.865Z,74.32
2019-05-02T06:10:52.865Z,74.22
2019-05-02T06:11:55.390Z,74.19
2019-05-02T06:12:52.777Z,74.19
2019-05-02T06:13:52.807Z,73.47
2019-05-02T06:14:56.241Z,73.23
2019-05-02T06:16:02.107Z,73.13
2019-05-02T06:16:53.286Z,73.02
2019-05-02T06:17:52.624Z,73.23
2019-05-02T06:18:52.592Z,73.23
2019-05-02T06:19:53.607Z,73.02
2019-05-02T06:20:52.534Z,72.31
2019-05-02T06:21:52.507Z,72.72
2019-05-02T06:22:55.073Z,73.33
2019-05-02T06:23:52.438Z,71.97
2019-05-02T06:24:52.438Z,72.58
2019-05-02T06:25:52.384Z,72.38
2019-05-02T06:26:52.353Z,72.17
2019-05-02T06:27:52.322Z,72.58
2019-05-02T06:28:52.291Z,71.97
2019-05-02T06:29:56.188Z,71.86
2019-05-02T06:30:52.225Z,72.58
2019-05-02T06:31:52.199Z,72.68
2019-05-02T06:32:54.844Z,72.24
2019-05-02T06:33:52.138Z,72.75
2019-05-02T06:34:52.156Z,71.73
2019-05-02T06:35:58.328Z,71.18
2019-05-02T06:36:52.056Z,71.49
2019-05-02T06:37:52.116Z,70.87
2019-05-02T06:38:56.156Z,70.23
2019-05-02T06:39:51.986Z,69.92
2019-05-02T06:40:51.934Z,70.03
2019-05-02T06:41:56.759Z,69.79
2019-05-02T06:42:51.871Z,69.38
2019-05-02T06:43:51.840Z,69.58
2019-05-02T06:44:54.909Z,69.07
2019-05-02T06:45:51.788Z,70.03
2019-05-02T06:46:51.754Z,69.82
2019-05-02T06:47:51.721Z,69.89
2019-05-02T06:48:52.349Z,69.79
2019-05-02T06:49:56.065Z,69.34
2019-05-02T06:50:51.639Z,68.73
2019-05-02T06:51:56.378Z,68.73
2019-05-02T06:52:51.667Z,68.93
2019-05-02T06:53:51.558Z,68.93
2019-05-02T06:54:54.088Z,68.73
2019-05-02T06:55:51.488Z,68.84
2019-05-02T06:56:51.460Z,69.38
2019-05-02T06:57:51.885Z,69.45
2019-05-02T06:58:51.412Z,69.89
2019-05-02T06:59:54.644Z,70.20
2019-05-02T07:00:58.041Z,70.20
2019-05-02T07:01:52.392Z,70.09
2019-05-02T07:02:51.337Z,70.71
2019-05-02T07:03:51.254Z,70.61
2019-05-02T07:04:54.807Z,70.74
2019-05-02T07:05:51.210Z,71.04
2019-05-02T07:06:58.902Z,71.04
2019-05-02T07:07:51.161Z,70.84
2019-05-02T07:08:51.162Z,70.74
2019-05-02T07:09:51.192Z,70.71
2019-05-02T07:10:51.050Z,70.84
2019-05-02T07:11:57.819Z,70.53
2019-05-02T07:12:56.738Z,70.84
2019-05-02T07:13:50.967Z,70.74
2019-05-02T07:14:50.959Z,71.25
2019-05-02T07:15:50.912Z,71.25
2019-05-02T07:16:54.491Z,71.45
2019-05-02T07:17:50.872Z,71.15
2019-05-02T07:18:50.836Z,71.22
2019-05-02T07:19:50.820Z,70.71
2019-05-02T07:20:50.761Z,70.43
2019-05-02T07:21:53.125Z,71.12
2019-05-02T07:22:50.703Z,70.91
2019-05-02T07:23:53.669Z,70.81
2019-05-02T07:24:50.647Z,70.94
2019-05-02T07:25:50.644Z,71.15
2019-05-02T07:26:52.197Z,71.12
2019-05-02T07:27:50.558Z,71.12
2019-05-02T07:28:50.528Z,71.25
2019-05-02T07:29:52.062Z,71.56
2019-05-02T07:30:50.499Z,71.66
2019-05-02T07:31:53.346Z,71.66
2019-05-02T07:32:50.417Z,71.97
2019-05-02T07:33:50.386Z,72.78
2019-05-02T07:34:50.353Z,72.69
2019-05-02T07:35:50.356Z,72.38
2019-05-02T07:36:50.301Z,71.62
2019-05-02T07:37:50.265Z,71.53
2019-05-02T07:38:50.258Z,71.12
2019-05-02T07:39:50.213Z,71.62
2019-05-02T07:40:52.979Z,71.39
2019-05-02T07:41:50.149Z,71.19
2019-05-02T07:42:50.123Z,70.88
2019-05-02T07:43:52.125Z,71.19
2019-05-02T07:44:50.064Z,70.98
2019-05-02T07:45:50.057Z,71.01
2019-05-02T07:46:51.828Z,71.53
2019-05-02T07:47:49.991Z,71.62
2019-05-02T07:48:54.429Z,71.62
2019-05-02T07:49:49.927Z,71.62
2019-05-02T07:50:50.330Z,71.22
2019-05-02T07:51:52.288Z,71.62
2019-05-02T07:52:49.828Z,70.98
2019-05-02T07:53:49.866Z,71.32
2019-05-02T07:54:49.770Z,71.29
2019-05-02T07:55:49.769Z,70.67
2019-05-02T07:56:53.379Z,71.08
2019-05-02T07:57:49.688Z,71.19
2019-05-02T07:58:49.661Z,71.05
2019-05-02T07:59:49.978Z,70.64
2019-05-02T08:00:49.624Z,70.23
2019-05-02T08:01:49.981Z,70.03
2019-05-02T08:02:49.548Z,70.13
2019-05-02T08:03:49.512Z,70.23
2019-05-02T08:04:49.486Z,70.54
2019-05-02T08:05:49.481Z,71.05
2019-05-02T08:06:49.424Z,71.19
2019-05-02T08:07:53.392Z,70.75
2019-05-02T08:08:49.363Z,70.67
2019-05-02T08:09:49.342Z,70.75
2019-05-02T08:10:53.761Z,70.95
2019-05-02T08:11:49.278Z,70.71
2019-05-02T08:12:49.252Z,70.40
2019-05-02T08:13:49.684Z,70.10
2019-05-02T08:14:49.195Z,69.69
2019-05-02T08:15:50.901Z,70.20
2019-05-02T08:16:49.162Z,69.89
2019-05-02T08:17:53.470Z,69.96
2019-05-02T08:18:49.095Z,69.86
2019-05-02T08:19:49.049Z,69.45
2019-05-02T08:20:51.018Z,69.76
2019-05-02T08:21:49.020Z,69.86
2019-05-02T08:22:50.384Z,69.21
2019-05-02T08:23:51.360Z,68.60
2019-05-02T08:24:48.933Z,68.70
2019-05-02T08:25:48.878Z,68.50
2019-05-02T08:26:48.872Z,68.67
2019-05-02T08:27:48.821Z,68.06
2019-05-02T08:28:51.881Z,68.37
2019-05-02T08:29:48.800Z,68.37
2019-05-02T08:30:48.745Z,68.16
2019-05-02T08:31:48.731Z,68.37
2019-05-02T08:32:48.691Z,68.40
2019-05-02T08:33:48.710Z,68.40
2019-05-02T08:34:51.608Z,69.01
2019-05-02T08:35:48.596Z,68.60
2019-05-02T08:36:48.600Z,68.80
2019-05-02T08:37:48.538Z,68.60
2019-05-02T08:38:48.976Z,69.01
2019-05-02T08:39:48.540Z,69.32
2019-05-02T08:40:49.789Z,69.32
2019-05-02T08:41:51.201Z,69.42
2019-05-02T08:42:48.400Z,68.88
2019-05-02T08:43:48.369Z,68.40
2019-05-02T08:44:51.362Z,68.91
2019-05-02T08:45:48.322Z,69.32
2019-05-02T08:46:51.357Z,69.21
2019-05-02T08:47:48.259Z,69.82
2019-05-02T08:48:50.572Z,69.11
2019-05-02T08:49:54.023Z,69.21
2019-05-02T08:50:48.177Z,69.56
2019-05-02T08:51:48.182Z,69.86
2019-05-02T08:52:48.288Z,69.65
2019-05-02T08:53:52.196Z,69.62
2019-05-02T08:54:48.065Z,69.32
2019-05-02T08:55:48.034Z,69.11
2019-05-02T08:56:48.039Z,69.18
2019-05-02T08:57:47.979Z,69.08
2019-05-02T08:58:49.856Z,68.57
2019-05-02T08:59:47.922Z,68.77
2019-05-02T09:00:47.892Z,68.57
2019-05-02T09:01:49.498Z,68.16
2019-05-02T09:02:47.832Z,67.96
2019-05-02T09:03:55.293Z,68.30
2019-05-02T09:04:57.972Z,68.91
2019-05-02T09:05:47.748Z,68.77
2019-05-02T09:06:47.745Z,68.70
2019-05-02T09:07:47.694Z,69.11
2019-05-02T09:08:51.354Z,69.32
2019-05-02T09:09:47.637Z,69.11
2019-05-02T09:10:47.611Z,68.91
2019-05-02T09:11:57.579Z,69.29
2019-05-02T09:12:47.575Z,68.60
2019-05-02T09:13:47.576Z,68.44
2019-05-02T09:14:47.501Z,68.47
2019-05-02T09:15:51.177Z,68.77
2019-05-02T09:16:47.444Z,68.54
2019-05-02T09:17:53.021Z,69.18
2019-05-02T09:18:51.785Z,68.13
2019-05-02T09:19:59.530Z,68.64
2019-05-02T09:20:52.587Z,67.72
2019-05-02T09:21:47.958Z,67.93
2019-05-02T09:22:54.035Z,68.23
2019-05-02T09:23:47.243Z,68.03
2019-05-02T09:24:47.217Z,68.23
2019-05-02T09:25:47.188Z,67.79
2019-05-02T09:26:47.160Z,67.08
2019-05-02T09:27:47.183Z,67.41
2019-05-02T09:28:47.105Z,67.29
2019-05-02T09:29:47.079Z,67.08
2019-05-02T09:30:47.048Z,66.97
2019-05-02T09:31:47.019Z,67.15
2019-05-02T09:32:47.019Z,66.85
2019-05-02T09:33:47.080Z,66.20
2019-05-02T09:34:46.934Z,66.00
2019-05-02T09:35:46.915Z,66.27
2019-05-02T09:36:46.897Z,65.97
2019-05-02T09:37:46.874Z,65.89
2019-05-02T09:38:48.816Z,65.89
2019-05-02T09:39:46.798Z,65.72
2019-05-02T09:40:47.187Z,66.85
2019-05-02T09:41:46.745Z,65.80
2019-05-02T09:42:47.479Z,65.89
2019-05-02T09:43:46.691Z,66.00
2019-05-02T09:44:47.892Z,65.36
2019-05-02T09:45:46.635Z,65.77
2019-05-02T09:46:47.528Z,65.86
2019-05-02T09:47:56.747Z,66.10
2019-05-02T09:48:46.555Z,65.80
2019-05-02T09:49:49.174Z,66.10
2019-05-02T09:50:46.506Z,65.80
2019-05-02T09:51:50.267Z,65.36
2019-05-02T09:52:46.484Z,65.25
2019-05-02T09:53:46.431Z,65.02
2019-05-02T09:54:46.396Z,64.20
2019-05-02T09:55:50.191Z,64.72
2019-05-02T09:56:46.967Z,64.00
2019-05-02T09:57:46.334Z,64.07
2019-05-02T09:58:49.178Z,63.94
2019-05-02T09:59:50.615Z,63.74
2019-05-02T10:00:46.232Z,63.20
2019-05-02T10:01:46.199Z,62.82
2019-05-02T10:02:46.180Z,62.01
2019-05-02T10:03:46.173Z,62.52
2019-05-02T10:04:46.124Z,63.33
2019-05-02T10:05:46.102Z,63.36
2019-05-02T10:06:46.071Z,63.80
2019-05-02T10:07:48.496Z,64.11
2019-05-02T10:08:46.747Z,63.90
2019-05-02T10:09:45.990Z,64.28
2019-05-02T10:10:46.273Z,63.64
2019-05-02T10:11:45.948Z,63.23
2019-05-02T10:12:45.917Z,62.96
2019-05-02T10:13:45.937Z,63.26
2019-05-02T10:14:45.868Z,64.11
2019-05-02T10:15:45.902Z,63.90
2019-05-02T10:16:45.928Z,64.23
2019-05-02T10:17:46.841Z,64.92
2019-05-02T10:18:45.825Z,64.51
2019-05-02T10:19:49.579Z,64.51
2019-05-02T10:20:45.705Z,64.31
2019-05-02T10:21:46.871Z,64.75
2019-05-02T10:22:45.649Z,66.00
2019-05-02T10:23:45.647Z,65.89
2019-05-02T10:24:45.598Z,65.49
2019-05-02T10:25:46.893Z,65.25
2019-05-02T10:26:46.387Z,65.05
2019-05-02T10:27:47.491Z,63.80
2019-05-02T10:28:49.385Z,63.67
2019-05-02T10:29:45.474Z,63.26
2019-05-02T10:30:47.356Z,63.90
2019-05-02T10:31:45.412Z,63.49
2019-05-02T10:32:47.284Z,64.51
2019-05-02T10:33:45.382Z,64.75
2019-05-02T10:34:47.538Z,65.39
2019-05-02T10:35:45.306Z,65.16
2019-05-02T10:36:45.583Z,66.00
2019-05-02T10:37:45.256Z,65.56
2019-05-02T10:38:49.025Z,65.56
2019-05-02T10:39:45.197Z,64.84
2019-05-02T10:40:48.398Z,63.80
2019-05-02T10:41:45.148Z,64.00
2019-05-02T10:42:45.117Z,64.11
2019-05-02T10:43:46.986Z,63.49
2019-05-02T10:44:45.065Z,64.41
2019-05-02T10:45:47.520Z,64.64
2019-05-02T10:46:45.014Z,65.25
2019-05-02T10:47:44.984Z,66.00
2019-05-02T10:48:44.986Z,65.69
2019-05-02T10:49:44.960Z,66.33
2019-05-02T10:50:44.902Z,66.64
2019-05-02T10:51:49.526Z,66.27
2019-05-02T10:52:44.858Z,66.47
2019-05-02T10:53:47.001Z,66.97
2019-05-02T10:54:44.826Z,66.33
2019-05-02T10:55:44.772Z,67.25
2019-05-02T10:56:44.741Z,65.62
2019-05-02T10:57:44.722Z,66.77
2019-05-02T10:58:44.695Z,66.33
2019-05-02T10:59:44.687Z,66.36
2019-05-02T11:00:45.495Z,66.97
2019-05-02T11:01:44.609Z,67.29
2019-05-02T11:02:44.582Z,67.18
2019-05-02T11:03:47.480Z,67.38
2019-05-02T11:04:44.547Z,67.08
2019-05-02T11:05:44.506Z,66.30
2019-05-02T11:06:46.280Z,66.20
2019-05-02T11:07:44.448Z,65.69
2019-05-02T11:08:46.131Z,65.80
2019-05-02T11:09:44.410Z,66.17
2019-05-02T11:10:44.359Z,64.95
2019-05-02T11:11:44.327Z,64.95
2019-05-02T11:12:46.852Z,65.86
2019-05-02T11:13:44.274Z,65.66
2019-05-02T11:14:44.275Z,65.69
2019-05-02T11:15:44.251Z,65.66
2019-05-02T11:16:44.194Z,65.86
2019-05-02T11:17:44.193Z,65.69
2019-05-02T11:18:45.230Z,65.77
2019-05-02T11:19:44.149Z,65.86
2019-05-02T11:20:44.088Z,65.59
2019-05-02T11:21:55.365Z,65.89
2019-05-02T11:22:44.030Z,66.50
2019-05-02T11:23:44.039Z,66.61
2019-05-02T11:24:43.973Z,66.82
2019-05-02T11:25:43.979Z,65.59
2019-05-02T11:26:43.915Z,65.77
2019-05-02T11:27:43.895Z,66.07
2019-05-02T11:28:43.865Z,65.46
2019-05-02T11:29:43.834Z,65.39
2019-05-02T11:30:43.833Z,65.36
2019-05-02T11:31:43.783Z,65.69
2019-05-02T11:32:43.762Z,66.17
2019-05-02T11:33:43.740Z,65.59
2019-05-02T11:34:43.701Z,66.00
2019-05-02T11:35:48.923Z,65.89
2019-05-02T11:36:43.645Z,65.69
2019-05-02T11:37:43.620Z,66.00
2019-05-02T11:38:46.251Z,65.97
2019-05-02T11:39:50.137Z,66.07
2019-05-02T11:40:43.562Z,65.36
2019-05-02T11:41:43.512Z,64.54
2019-05-02T11:42:43.484Z,64.95
2019-05-02T11:43:44.951Z,65.46
2019-05-02T11:44:43.499Z,65.63
2019-05-02T11:45:43.430Z,64.95
2019-05-02T11:46:46.937Z,64.81
2019-05-02T11:47:43.346Z,63.97
2019-05-02T11:48:55.414Z,63.57
2019-05-02T11:49:46.867Z,63.87
2019-05-02T11:50:43.292Z,62.65
2019-05-02T11:51:47.053Z,63.46
2019-05-02T11:52:43.222Z,62.75
2019-05-02T11:53:43.183Z,63.26
2019-05-02T11:54:44.724Z,63.26
2019-05-02T11:55:43.843Z,63.36
2019-05-02T11:56:48.983Z,63.26
2019-05-02T11:57:43.077Z,63.26
2019-05-02T11:58:48.223Z,63.36
2019-05-02T11:59:43.052Z,63.77
2019-05-02T12:00:48.021Z,63.77
2019-05-02T12:01:56.552Z,63.77
2019-05-02T12:02:42.940Z,63.77
2019-05-02T12:03:42.918Z,63.57
2019-05-02T12:04:42.889Z,63.67
2019-05-02T12:05:42.902Z,63.77
2019-05-02T12:06:42.834Z,63.57
2019-05-02T12:07:42.815Z,63.67
2019-05-02T12:08:45.127Z,63.59
2019-05-02T12:09:44.289Z,64.51
2019-05-02T12:10:42.750Z,64.81
2019-05-02T12:11:42.698Z,64.48
2019-05-02T12:12:43.047Z,63.87
2019-05-02T12:13:42.854Z,63.84
2019-05-02T12:14:42.619Z,63.84
2019-05-02T12:15:44.335Z,63.84
2019-05-02T12:16:43.101Z,63.94
2019-05-02T12:17:42.538Z,63.84
2019-05-02T12:18:42.517Z,63.23
2019-05-02T12:19:42.696Z,63.43
2019-05-02T12:20:42.777Z,61.98
2019-05-02T12:21:42.442Z,62.79
2019-05-02T12:22:42.407Z,63.71
2019-05-02T12:23:42.415Z,62.62
2019-05-02T12:24:45.296Z,63.23
2019-05-02T12:25:42.485Z,63.33
2019-05-02T12:26:42.300Z,63.67
2019-05-02T12:27:42.535Z,63.77
2019-05-02T12:28:42.891Z,63.87
2019-05-02T12:29:42.427Z,63.46
2019-05-02T12:30:42.253Z,63.77
2019-05-02T12:31:42.659Z,64.18
2019-05-02T12:32:42.787Z,64.79
2019-05-02T12:33:42.674Z,64.38
2019-05-02T12:34:42.133Z,63.94
2019-05-02T12:35:43.208Z,63.74
2019-05-02T12:36:42.719Z,63.94
2019-05-02T12:37:42.505Z,63.94
2019-05-02T12:38:42.143Z,63.84
2019-05-02T12:39:42.530Z,63.84
2019-05-02T12:40:42.294Z,63.91
2019-05-02T12:41:42.499Z,63.51
2019-05-02T12:42:42.001Z,62.79
2019-05-02T12:43:41.857Z,62.76
2019-05-02T12:44:42.600Z,62.70
2019-05-02T12:45:42.240Z,63.00
2019-05-02T12:46:42.223Z,62.66
2019-05-02T12:47:42.792Z,62.23
2019-05-02T12:48:42.272Z,62.13
2019-05-02T12:49:42.429Z,61.52
2019-05-02T12:50:41.930Z,61.90
2019-05-02T12:51:42.883Z,61.99
2019-05-02T12:52:42.920Z,61.97